createdAt,value
2023-05-17T00:03:16.111Z,5.00
2023-05-17T00:13:42.719Z,3.90
2023-05-17T00:24:09.457Z,4.80
2023-05-17T00:34:35.135Z,4.60
2023-05-17T00:45:00.967Z,4.40
2023-05-17T00:55:27.700Z,4.30
2023-05-17T01:05:53.650Z,4.20
2023-05-17T01:16:41.819Z,4.20
2023-05-17T01:27:08.511Z,4.30
2023-05-17T01:37:34.530Z,4.90
2023-05-17T01:48:09.732Z,5.20
2023-05-17T01:58:46.327Z,5.10
2023-05-17T02:09:12.242Z,6.50
2023-05-17T02:19:37.972Z,5.90
2023-05-17T02:30:04.920Z,4.90
2023-05-17T02:40:30.627Z,4.50
2023-05-17T02:50:56.446Z,5.80
2023-05-17T03:01:22.569Z,5.70
2023-05-17T03:11:48.314Z,3.80
2023-05-17T03:22:13.895Z,2.40
2023-05-17T03:32:41.596Z,2.60
2023-05-17T03:43:07.983Z,2.80
2023-05-17T03:53:34.260Z,2.70
2023-05-17T04:04:01.617Z,3.20
2023-05-17T04:14:27.255Z,3.20
2023-05-17T04:24:53.157Z,3.40
2023-05-17T04:35:19.310Z,3.40
2023-05-17T04:45:45.212Z,3.60
2023-05-17T04:56:11.420Z,3.00
2023-05-17T05:17:21.184Z,3.80
2023-05-17T05:27:46.880Z,3.80
2023-05-17T05:38:13.132Z,4.20
2023-05-17T05:48:42.046Z,4.80
2023-05-17T05:59:08.334Z,4.40
2023-05-17T06:09:34.115Z,4.50
2023-05-17T06:20:00.169Z,4.80
2023-05-17T06:30:28.162Z,5.10
2023-05-17T06:40:56.294Z,5.20
2023-05-17T06:51:22.729Z,4.30
2023-05-17T07:01:50.518Z,4.90
2023-05-17T07:22:41.554Z,4.60
2023-05-17T07:33:07.899Z,5.10
2023-05-17T07:43:33.724Z,5.90
2023-05-17T07:53:59.799Z,5.30
2023-05-17T08:04:25.690Z,5.80
2023-05-17T08:14:52.061Z,6.30
2023-05-17T08:25:18.103Z,4.30
2023-05-17T08:35:44.219Z,3.90
2023-05-17T08:46:11.321Z,5.10
2023-05-17T08:56:40.312Z,5.10
2023-05-17T09:07:06.544Z,5.30
2023-05-17T09:17:34.131Z,4.50
2023-05-17T09:28:03.953Z,5.30
2023-05-17T09:38:31.113Z,5.60
2023-05-17T09:48:59.938Z,5.50
2023-05-17T09:59:28.824Z,4.50
2023-05-17T10:09:55.904Z,4.40
2023-05-17T10:20:23.556Z,6.40
2023-05-17T10:30:51.529Z,7.70
2023-05-17T10:51:42.875Z,7.60
2023-05-17T11:02:10.323Z,6.30
2023-05-17T11:12:40.521Z,5.40
2023-05-17T11:23:08.370Z,5.90
2023-05-17T11:33:43.807Z,5.10
2023-05-17T11:44:26.250Z,4.60
2023-05-17T11:54:53.103Z,4.50
2023-05-17T12:05:23.763Z,4.00
2023-05-17T12:15:56.374Z,3.80
2023-05-17T12:26:23.427Z,3.50
2023-05-17T12:36:49.970Z,3.20
2023-05-17T12:47:15.975Z,2.90
2023-05-17T12:57:49.539Z,3.10
2023-05-17T13:08:25.128Z,3.50
2023-05-17T13:18:53.171Z,3.60
2023-05-17T13:29:23.083Z,3.80
2023-05-17T13:50:24.057Z,4.50
2023-05-17T14:00:49.808Z,3.70
2023-05-17T14:11:15.769Z,6.40
2023-05-17T14:21:41.744Z,4.80
2023-05-17T14:32:08.817Z,6.00
2023-05-17T14:42:34.705Z,5.20
2023-05-17T14:53:01.390Z,5.10
2023-05-17T15:03:27.366Z,6.10
2023-05-17T15:13:52.989Z,4.80
2023-05-17T15:24:18.751Z,5.80
2023-05-17T15:34:45.496Z,4.90
2023-05-17T15:45:12.560Z,6.10
2023-05-17T15:55:38.657Z,7.80
2023-05-17T16:06:05.512Z,7.40
2023-05-17T16:16:31.636Z,6.70
2023-05-17T16:26:58.094Z,6.70
2023-05-17T16:37:24.169Z,7.80
2023-05-17T16:47:50.686Z,7.40
2023-05-17T16:58:16.299Z,7.70
2023-05-17T17:08:42.161Z,7.90
2023-05-17T17:19:08.041Z,8.60
2023-05-17T17:29:34.613Z,8.90
2023-05-17T17:40:00.445Z,10.00
2023-05-17T17:50:26.045Z,10.00
2023-05-17T18:00:52.081Z,13.90
2023-05-17T18:11:18.699Z,12.40
2023-05-17T18:21:44.906Z,23.60
2023-05-17T18:32:12.125Z,9.40
2023-05-17T18:42:38.071Z,9.10
2023-05-17T18:53:04.184Z,10.70
2023-05-17T19:03:29.844Z,10.80
2023-05-17T19:13:55.811Z,10.30
2023-05-17T19:24:21.473Z,9.90
2023-05-17T19:34:47.448Z,9.30
2023-05-17T19:45:14.811Z,10.70
2023-05-17T19:55:41.187Z,10.90
2023-05-17T20:06:07.232Z,9.50
2023-05-17T20:16:33.078Z,9.30
2023-05-17T20:26:59.487Z,9.60
2023-05-17T20:37:25.662Z,9.10
2023-05-17T20:47:52.431Z,9.20
2023-05-17T20:58:18.437Z,9.00
2023-05-17T21:08:44.845Z,10.00
2023-05-17T21:19:10.621Z,7.80
2023-05-17T21:29:36.413Z,8.60
2023-05-17T21:40:02.182Z,8.10
2023-05-17T21:50:28.500Z,8.40
2023-05-17T22:00:54.799Z,7.30
2023-05-17T22:11:22.972Z,7.10
2023-05-17T22:21:48.643Z,8.00
2023-05-17T22:32:15.643Z,9.90
2023-05-17T22:42:43.299Z,10.30
2023-05-17T22:53:11.312Z,10.80
2023-05-17T23:03:37.546Z,9.50
2023-05-17T23:14:03.793Z,8.00
2023-05-17T23:24:29.610Z,8.70
2023-05-17T23:34:58.533Z,7.70
2023-05-17T23:45:25.041Z,7.60
2023-05-17T23:55:51.116Z,8.90
